Time;durP1;ratioP1;P1;durP2;ratioP2;P2;SDS_P1;SDS_P2;PMS_P1;PMS_P2;Temp;Humidity;BMP_temperature;BMP_pressure;BME280_temperature;BME280_humidity;BME280_pressure;Samples;Min_cycle;Max_cycle;Signal;HPM_P1;HPM_P2
2020/02/16 00:02:41;;;;;;;3.30;2.99;;;;;;;18.88;40.42;100758.08;;;;-56
2020/02/16 00:05:40;;;;;;;3.14;2.84;;;;;;;18.86;40.44;100748.48;;;;-56
2020/02/16 00:08:41;;;;;;;2.99;2.73;;;;;;;18.85;40.45;100740.92;;;;-57
2020/02/16 00:11:40;;;;;;;3.31;2.76;;;;;;;18.83;40.48;100737.12;;;;-57
2020/02/16 00:14:40;;;;;;;3.31;2.93;;;;;;;18.83;40.46;100722.69;;;;-57
2020/02/16 00:17:40;;;;;;;3.07;2.77;;;;;;;18.81;40.49;100715.05;;;;-57
2020/02/16 00:20:40;;;;;;;3.33;2.95;;;;;;;18.80;40.49;100699.14;;;;-55
2020/02/16 00:23:40;;;;;;;2.69;2.49;;;;;;;18.78;40.50;100696.20;;;;-57
2020/02/16 00:26:40;;;;;;;2.98;2.68;;;;;;;18.78;40.49;100691.41;;;;-57
2020/02/16 00:29:40;;;;;;;3.04;2.74;;;;;;;18.77;40.50;100691.86;;;;-56
2020/02/16 00:32:40;;;;;;;3.31;3.01;;;;;;;18.76;40.50;100678.08;;;;-57
2020/02/16 00:35:40;;;;;;;3.17;2.85;;;;;;;18.75;40.52;100676.52;;;;-57
2020/02/16 00:38:41;;;;;;;2.94;2.67;;;;;;;18.74;40.53;100678.89;;;;-57
2020/02/16 00:41:41;;;;;;;2.97;2.67;;;;;;;18.73;40.54;100678.67;;;;-57
2020/02/16 00:44:40;;;;;;;3.13;2.83;;;;;;;18.71;40.53;100686.98;;;;-57
2020/02/16 00:47:40;;;;;;;3.15;2.83;;;;;;;18.71;40.53;100688.98;;;;-57
2020/02/16 00:50:40;;;;;;;3.03;2.73;;;;;;;18.70;40.58;100693.84;;;;-57
2020/02/16 00:53:40;;;;;;;3.12;2.82;;;;;;;18.69;40.58;100694.23;;;;-57
2020/02/16 00:56:40;;;;;;;2.99;2.69;;;;;;;18.69;40.56;100696.47;;;;-57
2020/02/16 00:59:40;;;;;;;3.08;2.76;;;;;;;18.67;40.60;100699.88;;;;-57
2020/02/16 01:02:53;;;;;;;3.13;2.75;;;;;;;18.66;40.59;100704.68;;;;-57
2020/02/16 01:05:44;;;;;;;3.25;2.88;;;;;;;18.66;40.58;100705.34;;;;-57
2020/02/16 01:08:40;;;;;;;3.00;2.65;;;;;;;18.65;40.60;100705.90;;;;-57
2020/02/16 01:11:40;;;;;;;3.47;2.73;;;;;;;18.64;40.57;100714.87;;;;-57
2020/02/16 01:14:40;;;;;;;3.09;2.79;;;;;;;18.62;40.62;100726.33;;;;-56
2020/02/16 01:17:41;;;;;;;3.05;2.75;;;;;;;18.61;40.61;100709.14;;;;-57
2020/02/16 01:20:40;;;;;;;3.25;2.72;;;;;;;18.60;40.61;100702.80;;;;-57
2020/02/16 01:23:40;;;;;;;3.19;2.74;;;;;;;18.59;40.61;100693.77;;;;-56
2020/02/16 01:26:40;;;;;;;3.04;2.63;;;;;;;18.59;40.61;100699.73;;;;-57
2020/02/16 01:29:40;;;;;;;3.04;2.75;;;;;;;18.57;40.58;100695.05;;;;-57
2020/02/16 01:32:40;;;;;;;3.07;2.77;;;;;;;18.56;40.60;100698.51;;;;-57
2020/02/16 01:35:40;;;;;;;3.44;2.80;;;;;;;18.56;40.63;100700.41;;;;-57
2020/02/16 01:38:40;;;;;;;3.06;2.73;;;;;;;18.54;40.66;100702.21;;;;-57
2020/02/16 01:41:40;;;;;;;3.06;2.76;;;;;;;18.54;40.66;100702.59;;;;-57
2020/02/16 01:44:40;;;;;;;2.99;2.67;;;;;;;18.53;40.62;100695.06;;;;-56
2020/02/16 01:47:40;;;;;;;3.25;2.95;;;;;;;18.52;40.67;100711.14;;;;-57
2020/02/16 01:50:40;;;;;;;2.99;2.69;;;;;;;18.51;40.66;100702.81;;;;-57
2020/02/16 01:53:41;;;;;;;3.01;2.71;;;;;;;18.49;40.68;100704.39;;;;-57
2020/02/16 01:56:40;;;;;;;2.79;2.59;;;;;;;18.49;40.68;100679.03;;;;-57
2020/02/16 01:59:40;;;;;;;3.18;2.83;;;;;;;18.48;40.67;100673.52;;;;-57
2020/02/16 02:02:40;;;;;;;2.97;2.67;;;;;;;18.47;40.68;100666.10;;;;-57
2020/02/16 02:05:40;;;;;;;3.11;2.79;;;;;;;18.45;40.72;100653.29;;;;-56
2020/02/16 02:08:40;;;;;;;2.93;2.63;;;;;;;18.46;40.67;100655.00;;;;-57
2020/02/16 02:11:40;;;;;;;3.01;2.75;;;;;;;18.45;40.69;100642.08;;;;-57
2020/02/16 02:14:40;;;;;;;2.99;2.69;;;;;;;18.44;40.73;100623.19;;;;-57
2020/02/16 02:21:41;;;;;;;3.21;2.75;;;;;;;18.42;40.73;100612.05;;;;-57
2020/02/16 02:24:40;;;;;;;3.04;2.72;;;;;;;18.41;40.73;100601.08;;;;-57
2020/02/16 02:27:40;;;;;;;2.83;2.60;;;;;;;18.41;40.71;100604.15;;;;-57
2020/02/16 02:30:40;;;;;;;3.01;2.61;;;;;;;18.40;40.72;100599.01;;;;-57
2020/02/16 02:33:40;;;;;;;2.81;2.60;;;;;;;18.39;40.74;100597.79;;;;-57
2020/02/16 02:36:40;;;;;;;2.82;2.52;;;;;;;18.38;40.73;100594.91;;;;-57
2020/02/16 02:40:40;;;;;;;2.71;2.50;;;;;;;18.38;40.74;100591.99;;;;-57
2020/02/16 02:43:40;;;;;;;2.86;2.52;;;;;;;18.37;40.75;100593.17;;;;-57
2020/02/16 02:46:40;;;;;;;2.93;2.68;;;;;;;18.36;40.76;100590.95;;;;-57
2020/02/16 02:49:40;;;;;;;3.31;2.79;;;;;;;18.35;40.73;100594.25;;;;-57
2020/02/16 02:52:40;;;;;;;3.19;2.41;;;;;;;18.36;40.76;100592.52;;;;-57
2020/02/16 02:55:40;;;;;;;2.65;2.45;;;;;;;18.34;40.77;100588.27;;;;-57
2020/02/16 02:58:40;;;;;;;2.82;2.50;;;;;;;18.34;40.77;100585.83;;;;-56
2020/02/16 03:01:40;;;;;;;2.77;2.57;;;;;;;18.33;40.75;100586.63;;;;-57
2020/02/16 03:04:40;;;;;;;3.17;2.62;;;;;;;18.33;40.74;100585.11;;;;-57
2020/02/16 03:07:40;;;;;;;2.80;2.55;;;;;;;18.31;40.75;100579.83;;;;-57
2020/02/16 03:10:40;;;;;;;2.79;2.59;;;;;;;18.31;40.77;100574.70;;;;-56
2020/02/16 03:13:40;;;;;;;2.79;2.40;;;;;;;18.30;40.77;100571.79;;;;-56
2020/02/16 03:16:40;;;;;;;3.12;2.59;;;;;;;18.30;40.79;100567.73;;;;-57
2020/02/16 03:19:40;;;;;;;2.75;2.51;;;;;;;18.28;40.76;100563.06;;;;-57
2020/02/16 03:22:40;;;;;;;2.72;2.52;;;;;;;18.28;40.77;100559.15;;;;-56
2020/02/16 03:25:40;;;;;;;3.01;2.61;;;;;;;18.27;40.80;100557.99;;;;-57
2020/02/16 03:28:40;;;;;;;2.84;2.49;;;;;;;18.27;40.81;100565.91;;;;-57
2020/02/16 03:31:40;;;;;;;2.60;2.40;;;;;;;18.26;40.80;100572.98;;;;-57
2020/02/16 03:34:44;;;;;;;2.77;2.54;;;;;;;18.25;40.78;100573.88;;;;-57
2020/02/16 03:37:40;;;;;;;2.85;2.61;;;;;;;18.26;40.76;100580.41;;;;-57
2020/02/16 03:40:40;;;;;;;2.86;2.53;;;;;;;18.24;40.79;100584.36;;;;-57
2020/02/16 03:43:40;;;;;;;2.66;2.44;;;;;;;18.23;40.79;100585.27;;;;-57
2020/02/16 03:46:40;;;;;;;2.85;2.65;;;;;;;18.24;40.81;100582.70;;;;-56
2020/02/16 03:49:40;;;;;;;2.79;2.51;;;;;;;18.22;40.79;100575.86;;;;-57
2020/02/16 03:52:40;;;;;;;2.81;2.61;;;;;;;18.22;40.80;100572.91;;;;-57
2020/02/16 03:55:40;;;;;;;2.81;2.49;;;;;;;18.20;40.79;100583.28;;;;-57
2020/02/16 03:58:40;;;;;;;2.90;2.41;;;;;;;18.21;40.83;100582.95;;;;-57
2020/02/16 04:01:40;;;;;;;2.83;2.49;;;;;;;18.20;40.83;100578.94;;;;-56
2020/02/16 04:04:40;;;;;;;2.73;2.53;;;;;;;18.20;40.83;100578.39;;;;-57
2020/02/16 04:07:40;;;;;;;3.04;2.51;;;;;;;18.19;40.83;100575.16;;;;-57
2020/02/16 04:10:41;;;;;;;2.67;2.44;;;;;;;18.19;40.79;100575.27;;;;-57
2020/02/16 04:13:40;;;;;;;3.49;2.46;;;;;;;18.18;40.82;100572.20;;;;-57
2020/02/16 04:16:40;;;;;;;2.68;2.45;;;;;;;18.17;40.82;100569.47;;;;-57
2020/02/16 04:19:41;;;;;;;2.79;2.37;;;;;;;18.16;40.78;100564.08;;;;-57
2020/02/16 04:22:45;;;;;;;2.61;2.31;;;;;;;18.16;40.80;100561.91;;;;-57
2020/02/16 04:25:44;;;;;;;2.97;2.56;;;;;;;18.16;40.81;100562.40;;;;-57
2020/02/16 04:28:40;;;;;;;2.80;2.53;;;;;;;18.15;40.82;100565.86;;;;-56
2020/02/16 04:31:40;;;;;;;2.77;2.49;;;;;;;18.14;40.82;100560.62;;;;-57
2020/02/16 04:34:40;;;;;;;2.68;2.48;;;;;;;18.13;40.85;100564.77;;;;-57
2020/02/16 04:37:40;;;;;;;2.92;2.62;;;;;;;18.12;40.83;100562.98;;;;-57
2020/02/16 04:40:40;;;;;;;2.51;2.31;;;;;;;18.12;40.81;100561.47;;;;-57
2020/02/16 04:43:40;;;;;;;2.61;2.41;;;;;;;18.12;40.81;100563.64;;;;-57
2020/02/16 04:46:40;;;;;;;2.70;2.47;;;;;;;18.13;40.81;100566.27;;;;-57
2020/02/16 04:49:40;;;;;;;2.96;2.55;;;;;;;18.14;40.82;100561.91;;;;-57
2020/02/16 04:52:40;;;;;;;2.69;2.49;;;;;;;18.15;40.76;100552.50;;;;-56
2020/02/16 04:55:40;;;;;;;2.60;2.40;;;;;;;18.17;40.77;100548.53;;;;-57
2020/02/16 04:58:41;;;;;;;2.73;2.53;;;;;;;18.19;40.80;100533.14;;;;-57
2020/02/16 05:01:40;;;;;;;2.79;2.59;;;;;;;18.22;40.78;100528.77;;;;-57
2020/02/16 05:04:40;;;;;;;2.60;2.40;;;;;;;18.24;40.75;100526.41;;;;-57
2020/02/16 05:07:40;;;;;;;2.69;2.34;;;;;;;18.27;40.72;100533.58;;;;-57
2020/02/16 05:10:40;;;;;;;2.73;2.50;;;;;;;18.30;40.66;100527.88;;;;-57
2020/02/16 05:13:40;;;;;;;2.59;2.39;;;;;;;18.35;40.70;100532.88;;;;-57
2020/02/16 05:16:40;;;;;;;2.53;2.33;;;;;;;18.38;40.70;100536.77;;;;-61
2020/02/16 05:19:40;;;;;;;2.73;2.49;;;;;;;18.42;40.74;100539.15;;;;-62
2020/02/16 05:22:40;;;;;;;2.60;2.39;;;;;;;18.45;40.80;100529.88;;;;-54
2020/02/16 05:25:40;;;;;;;2.75;2.53;;;;;;;18.48;40.71;100532.87;;;;-57
2020/02/16 05:28:40;;;;;;;2.63;2.43;;;;;;;18.53;40.78;100528.83;;;;-58
2020/02/16 05:31:40;;;;;;;2.60;2.40;;;;;;;18.56;40.71;100525.73;;;;-60
2020/02/16 05:34:40;;;;;;;2.71;2.51;;;;;;;18.58;40.78;100518.31;;;;-59
2020/02/16 05:37:40;;;;;;;2.66;2.31;;;;;;;18.62;40.80;100511.27;;;;-58
2020/02/16 05:40:40;;;;;;;2.61;2.41;;;;;;;18.66;40.92;100509.46;;;;-57
2020/02/16 05:43:40;;;;;;;2.49;2.29;;;;;;;18.68;40.81;100506.55;;;;-57
2020/02/16 05:46:40;;;;;;;2.77;2.33;;;;;;;18.71;40.82;100504.62;;;;-58
2020/02/16 05:49:40;;;;;;;2.41;2.21;;;;;;;18.74;40.83;100504.16;;;;-60
2020/02/16 05:52:40;;;;;;;2.57;2.37;;;;;;;18.76;40.78;100506.03;;;;-55
2020/02/16 05:55:40;;;;;;;2.57;2.37;;;;;;;18.80;40.80;100513.16;;;;-61
2020/02/16 05:58:40;;;;;;;2.35;2.15;;;;;;;18.82;40.77;100506.55;;;;-57
2020/02/16 06:01:40;;;;;;;2.45;2.25;;;;;;;18.85;40.83;100504.96;;;;-57
2020/02/16 06:04:40;;;;;;;2.31;2.11;;;;;;;18.87;40.77;100510.70;;;;-57
2020/02/16 06:07:40;;;;;;;2.56;2.36;;;;;;;18.89;40.74;100513.55;;;;-57
2020/02/16 06:10:40;;;;;;;2.61;2.41;;;;;;;18.91;40.69;100518.99;;;;-57
2020/02/16 06:13:40;;;;;;;2.50;2.30;;;;;;;18.93;40.75;100520.03;;;;-61
2020/02/16 06:16:40;;;;;;;2.59;2.39;;;;;;;18.93;40.72;100527.16;;;;-60
2020/02/16 06:19:40;;;;;;;2.52;2.30;;;;;;;18.96;40.68;100528.60;;;;-61
2020/02/16 06:22:40;;;;;;;2.55;2.35;;;;;;;18.98;40.66;100529.04;;;;-60
2020/02/16 06:25:40;;;;;;;2.48;2.28;;;;;;;18.98;40.59;100530.48;;;;-61
2020/02/16 06:28:40;;;;;;;2.35;2.15;;;;;;;18.99;40.63;100526.17;;;;-61
2020/02/16 06:31:40;;;;;;;2.37;2.17;;;;;;;19.00;40.58;100523.05;;;;-61
2020/02/16 06:34:40;;;;;;;2.39;2.19;;;;;;;19.02;40.54;100524.47;;;;-61
2020/02/16 06:37:40;;;;;;;2.58;2.38;;;;;;;19.03;40.51;100529.11;;;;-60
2020/02/16 06:40:40;;;;;;;2.38;2.18;;;;;;;19.03;40.50;100521.06;;;;-60
2020/02/16 06:43:40;;;;;;;2.59;2.39;;;;;;;19.04;40.48;100522.95;;;;-61
2020/02/16 06:46:48;;;;;;;2.32;2.12;;;;;;;19.05;40.53;100521.56;;;;-61
2020/02/16 06:50:49;;;;;;;2.53;2.33;;;;;;;19.04;40.43;100519.68;;;;-57
2020/02/16 06:53:47;;;;;;;2.52;2.27;;;;;;;19.05;40.38;100518.55;;;;-57
2020/02/16 06:57:01;;;;;;;2.41;2.21;;;;;;;19.05;40.42;100522.33;;;;-61
2020/02/16 06:59:40;;;;;;;2.77;2.33;;;;;;;19.05;40.37;100522.84;;;;-62
2020/02/16 07:02:40;;;;;;;2.40;2.20;;;;;;;19.05;40.38;100519.32;;;;-61
2020/02/16 07:05:40;;;;;;;2.31;2.11;;;;;;;19.05;40.36;100516.88;;;;-55
2020/02/16 07:08:40;;;;;;;2.40;2.20;;;;;;;19.05;40.33;100518.42;;;;-61
2020/02/16 07:11:40;;;;;;;2.41;2.21;;;;;;;19.05;40.30;100534.49;;;;-61
2020/02/16 07:14:40;;;;;;;2.43;2.23;;;;;;;19.05;40.34;100530.81;;;;-60
2020/02/16 07:17:40;;;;;;;2.29;2.09;;;;;;;19.06;40.34;100534.94;;;;-60
2020/02/16 07:20:40;;;;;;;2.35;2.15;;;;;;;19.06;40.32;100534.05;;;;-61
2020/02/16 07:23:40;;;;;;;2.49;2.29;;;;;;;19.06;40.33;100544.92;;;;-53
2020/02/16 07:26:40;;;;;;;2.31;2.11;;;;;;;19.07;40.28;100533.47;;;;-56
2020/02/16 07:29:40;;;;;;;2.31;2.11;;;;;;;19.06;40.29;100542.41;;;;-57
2020/02/16 07:32:40;;;;;;;2.26;2.06;;;;;;;19.06;40.24;100531.36;;;;-58
2020/02/16 07:35:40;;;;;;;2.35;2.14;;;;;;;19.07;40.22;100522.94;;;;-57
2020/02/16 07:38:40;;;;;;;2.34;2.14;;;;;;;19.07;40.18;100516.08;;;;-61
2020/02/16 07:41:40;;;;;;;2.45;2.25;;;;;;;19.08;40.19;100518.19;;;;-61
2020/02/16 07:44:40;;;;;;;2.10;1.90;;;;;;;19.07;40.18;100510.28;;;;-58
2020/02/16 07:47:40;;;;;;;2.65;2.45;;;;;;;19.08;40.18;100508.75;;;;-54
2020/02/16 07:50:40;;;;;;;2.45;2.25;;;;;;;19.08;40.17;100503.12;;;;-57
2020/02/16 07:53:40;;;;;;;2.46;2.22;;;;;;;19.08;40.17;100506.25;;;;-57
2020/02/16 07:56:40;;;;;;;2.39;2.19;;;;;;;19.09;40.15;100502.60;;;;-57
2020/02/16 07:59:40;;;;;;;2.46;2.16;;;;;;;19.09;40.14;100508.53;;;;-57
2020/02/16 08:02:40;;;;;;;2.38;2.18;;;;;;;19.10;40.13;100504.33;;;;-57
2020/02/16 08:05:40;;;;;;;2.30;2.10;;;;;;;19.09;40.16;100511.25;;;;-57
2020/02/16 08:08:40;;;;;;;2.27;2.07;;;;;;;19.10;40.14;100508.34;;;;-56
2020/02/16 08:11:40;;;;;;;2.17;1.97;;;;;;;19.10;40.15;100507.17;;;;-57
2020/02/16 08:14:40;;;;;;;2.29;2.09;;;;;;;19.11;40.13;100502.27;;;;-60
2020/02/16 08:17:40;;;;;;;2.23;2.00;;;;;;;19.12;40.12;100496.45;;;;-54
2020/02/16 08:20:40;;;;;;;2.49;1.98;;;;;;;19.13;40.09;100496.39;;;;-61
2020/02/16 08:23:40;;;;;;;2.49;2.12;;;;;;;19.13;40.09;100501.83;;;;-57
2020/02/16 08:26:40;;;;;;;2.37;2.17;;;;;;;19.13;40.09;100506.88;;;;-54
2020/02/16 08:29:40;;;;;;;2.36;2.12;;;;;;;19.14;40.12;100500.93;;;;-55
2020/02/16 08:32:40;;;;;;;2.37;2.17;;;;;;;19.15;40.08;100500.31;;;;-55
2020/02/16 08:35:40;;;;;;;2.27;2.07;;;;;;;19.15;40.06;100502.88;;;;-54
2020/02/16 08:38:40;;;;;;;2.51;2.21;;;;;;;19.15;40.07;100494.45;;;;-54
2020/02/16 08:41:40;;;;;;;2.31;2.09;;;;;;;19.15;40.08;100496.62;;;;-54
2020/02/16 08:44:40;;;;;;;2.30;2.10;;;;;;;19.15;40.09;100494.98;;;;-54
2020/02/16 08:47:40;;;;;;;2.79;2.07;;;;;;;19.16;40.10;100495.67;;;;-57
2020/02/16 08:50:40;;;;;;;2.19;1.99;;;;;;;19.16;40.07;100495.03;;;;-57
2020/02/16 08:53:40;;;;;;;5.13;2.17;;;;;;;19.17;40.16;100499.60;;;;-59
2020/02/16 08:56:40;;;;;;;2.49;2.07;;;;;;;19.17;40.18;100496.42;;;;-54
2020/02/16 08:59:40;;;;;;;2.18;1.98;;;;;;;19.18;40.12;100493.41;;;;-55
2020/02/16 09:02:40;;;;;;;2.82;1.93;;;;;;;19.18;40.15;100488.95;;;;-54
2020/02/16 09:05:40;;;;;;;2.70;2.01;;;;;;;19.18;40.11;100489.23;;;;-55
2020/02/16 09:08:40;;;;;;;3.21;1.90;;;;;;;19.18;40.12;100487.45;;;;-59
2020/02/16 09:11:40;;;;;;;2.93;1.90;;;;;;;19.16;40.08;100479.30;;;;-60
2020/02/16 09:14:40;;;;;;;2.38;1.90;;;;;;;19.16;40.04;100467.98;;;;-60
2020/02/16 09:17:43;;;;;;;3.01;1.91;;;;;;;19.16;40.12;100457.77;;;;-60
2020/02/16 09:20:40;;;;;;;2.11;1.91;;;;;;;19.16;40.09;100452.31;;;;-60
2020/02/16 09:23:40;;;;;;;2.13;1.93;;;;;;;19.15;40.06;100447.28;;;;-59
2020/02/16 09:26:40;;;;;;;2.31;2.11;;;;;;;19.16;40.07;100448.86;;;;-60
2020/02/16 09:29:40;;;;;;;2.17;1.97;;;;;;;19.15;40.07;100448.81;;;;-59
2020/02/16 09:32:40;;;;;;;2.19;1.99;;;;;;;19.15;40.03;100454.81;;;;-60
2020/02/16 09:35:40;;;;;;;3.23;2.03;;;;;;;19.15;40.27;100458.80;;;;-49
2020/02/16 09:38:40;;;;;;;2.37;2.17;;;;;;;19.17;40.74;100467.81;;;;-50
2020/02/16 09:41:40;;;;;;;2.56;2.36;;;;;;;19.17;40.64;100469.53;;;;-48
2020/02/16 09:44:40;;;;;;;3.60;2.51;;;;;;;19.18;40.72;100462.72;;;;-48
2020/02/16 09:47:40;;;;;;;3.75;2.50;;;;;;;19.20;40.40;100460.30;;;;-55
2020/02/16 09:50:40;;;;;;;4.17;2.47;;;;;;;19.20;39.96;100444.78;;;;-55
2020/02/16 09:53:40;;;;;;;5.81;2.51;;;;;;;19.21;40.57;100433.05;;;;-50
2020/02/16 09:56:40;;;;;;;5.17;2.48;;;;;;;19.24;40.83;100418.86;;;;-53
2020/02/16 09:59:40;;;;;;;3.23;2.30;;;;;;;19.25;40.89;100413.98;;;;-46
2020/02/16 10:02:40;;;;;;;6.72;2.49;;;;;;;19.28;40.99;100385.72;;;;-46
2020/02/16 10:05:40;;;;;;;2.94;2.54;;;;;;;19.31;41.01;100379.15;;;;-45
2020/02/16 10:08:40;;;;;;;2.79;2.55;;;;;;;19.34;41.01;100416.89;;;;-46
2020/02/16 10:11:40;;;;;;;4.70;2.40;;;;;;;19.38;40.76;100431.53;;;;-52
2020/02/16 10:14:40;;;;;;;2.73;2.43;;;;;;;19.40;40.55;100419.86;;;;-51
2020/02/16 10:17:40;;;;;;;4.91;2.44;;;;;;;19.46;40.92;100395.00;;;;-49
2020/02/16 10:20:40;;;;;;;4.53;2.52;;;;;;;19.52;41.02;100365.45;;;;-47
2020/02/16 10:23:40;;;;;;;5.57;2.45;;;;;;;19.53;41.13;100351.87;;;;-53
2020/02/16 10:26:40;;;;;;;3.03;2.41;;;;;;;19.56;40.89;100360.20;;;;-46
2020/02/16 10:29:40;;;;;;;2.67;2.30;;;;;;;19.60;40.94;100354.23;;;;-47
2020/02/16 10:32:59;;;;;;;4.40;2.49;;;;;;;19.64;41.44;100370.25;;;;-49
2020/02/16 10:35:44;;;;;;;2.70;2.28;;;;;;;19.70;41.37;100377.51;;;;-51
2020/02/16 10:38:41;;;;;;;5.97;2.48;;;;;;;19.70;41.09;100377.34;;;;-51
2020/02/16 10:41:44;;;;;;;4.05;2.64;;;;;;;19.71;40.98;100378.89;;;;-51
2020/02/16 10:48:25;;;;;;;3.66;2.37;;;;;;;19.76;41.01;100389.43;;;;-47
2020/02/16 10:51:40;;;;;;;3.67;2.30;;;;;;;19.78;40.63;100386.83;;;;-52
2020/02/16 10:54:40;;;;;;;2.59;2.37;;;;;;;19.82;40.85;100371.31;;;;-44
2020/02/16 10:57:40;;;;;;;4.13;2.50;;;;;;;19.84;41.01;100363.92;;;;-53
2020/02/16 11:00:40;;;;;;;3.22;2.43;;;;;;;19.86;41.05;100356.96;;;;-52
2020/02/16 11:03:40;;;;;;;2.89;2.36;;;;;;;19.89;41.07;100353.67;;;;-45
2020/02/16 11:06:40;;;;;;;2.82;2.49;;;;;;;19.94;41.30;100345.45;;;;-45
2020/02/16 11:09:40;;;;;;;2.63;2.32;;;;;;;19.96;41.19;100336.13;;;;-52
2020/02/16 11:12:40;;;;;;;2.97;2.35;;;;;;;19.98;40.79;100326.28;;;;-44
2020/02/16 11:15:40;;;;;;;3.67;2.32;;;;;;;20.00;40.98;100312.08;;;;-47
2020/02/16 11:18:40;;;;;;;3.02;2.37;;;;;;;20.01;41.13;100309.50;;;;-45
2020/02/16 11:21:40;;;;;;;3.27;2.41;;;;;;;20.02;40.77;100308.20;;;;-47
2020/02/16 11:24:40;;;;;;;2.72;2.32;;;;;;;20.04;40.97;100309.72;;;;-46
2020/02/16 11:27:40;;;;;;;4.45;2.27;;;;;;;20.08;41.40;100298.05;;;;-58
2020/02/16 11:30:40;;;;;;;3.29;2.67;;;;;;;20.10;41.18;100299.70;;;;-55
2020/02/16 11:33:40;;;;;;;2.81;2.25;;;;;;;20.11;41.09;100275.03;;;;-53
2020/02/16 11:36:40;;;;;;;3.56;2.30;;;;;;;20.11;40.64;100269.66;;;;-57
2020/02/16 11:39:41;;;;;;;4.61;2.48;;;;;;;20.13;40.32;100265.22;;;;-48
2020/02/16 11:42:40;;;;;;;3.29;2.20;;;;;;;20.14;40.97;100260.45;;;;-51
2020/02/16 11:45:40;;;;;;;3.52;2.17;;;;;;;20.15;40.33;100263.45;;;;-47
2020/02/16 11:48:40;;;;;;;3.78;2.29;;;;;;;20.17;40.45;100247.39;;;;-48
2020/02/16 11:51:40;;;;;;;4.64;2.31;;;;;;;20.16;40.35;100236.89;;;;-48
2020/02/16 11:54:40;;;;;;;3.06;2.14;;;;;;;20.15;40.20;100234.44;;;;-48
2020/02/16 11:57:41;;;;;;;3.37;2.33;;;;;;;20.14;39.96;100241.61;;;;-48
2020/02/16 12:00:41;;;;;;;4.09;2.42;;;;;;;20.14;40.04;100233.56;;;;-48
2020/02/16 12:03:40;;;;;;;4.32;2.31;;;;;;;20.13;40.05;100235.77;;;;-48
2020/02/16 12:06:40;;;;;;;2.81;2.32;;;;;;;20.13;40.04;100232.58;;;;-48
2020/02/16 12:09:40;;;;;;;2.75;2.34;;;;;;;20.13;39.89;100221.52;;;;-48
2020/02/16 12:12:40;;;;;;;2.39;2.14;;;;;;;20.12;39.91;100218.73;;;;-48
2020/02/16 12:15:40;;;;;;;2.45;2.25;;;;;;;20.12;39.78;100223.16;;;;-49
2020/02/16 12:18:40;;;;;;;3.71;2.05;;;;;;;20.13;39.84;100212.13;;;;-58
2020/02/16 12:21:40;;;;;;;2.47;2.16;;;;;;;20.13;39.84;100207.77;;;;-50
2020/02/16 12:27:43;;;;;;;2.49;2.05;;;;;;;20.11;39.75;100194.28;;;;-50
2020/02/16 12:30:45;;;;;;;2.29;2.09;;;;;;;20.10;39.75;100173.23;;;;-50
2020/02/16 12:36:46;;;;;;;3.18;2.28;;;;;;;20.10;39.71;100166.02;;;;-50
2020/02/16 12:42:40;;;;;;;2.37;2.02;;;;;;;20.09;39.66;100158.10;;;;-53
2020/02/16 12:45:40;;;;;;;2.45;2.19;;;;;;;20.10;39.71;100160.88;;;;-53
2020/02/16 12:48:40;;;;;;;2.86;2.26;;;;;;;20.09;39.62;100158.84;;;;-53
2020/02/16 12:51:40;;;;;;;2.45;2.11;;;;;;;20.08;39.58;100162.48;;;;-53
2020/02/16 12:54:40;;;;;;;2.33;2.13;;;;;;;20.08;39.68;100164.00;;;;-52
2020/02/16 12:57:40;;;;;;;2.13;1.90;;;;;;;20.08;39.65;100155.78;;;;-53
2020/02/16 13:03:40;;;;;;;2.47;2.11;;;;;;;20.08;39.66;100151.69;;;;-53
2020/02/16 13:06:40;;;;;;;2.43;2.10;;;;;;;20.07;39.60;100147.30;;;;-52
2020/02/16 13:09:40;;;;;;;2.22;2.02;;;;;;;20.07;39.58;100142.27;;;;-53
2020/02/16 13:12:40;;;;;;;2.19;1.99;;;;;;;20.08;39.59;100149.41;;;;-53
2020/02/16 13:15:40;;;;;;;2.18;1.98;;;;;;;20.07;39.59;100140.42;;;;-53
2020/02/16 13:18:40;;;;;;;2.35;2.10;;;;;;;20.07;39.63;100136.41;;;;-52
2020/02/16 13:21:40;;;;;;;2.17;1.97;;;;;;;20.08;39.58;100123.87;;;;-53
2020/02/16 13:24:40;;;;;;;2.79;2.17;;;;;;;20.09;39.62;100123.91;;;;-53
2020/02/16 13:27:40;;;;;;;2.21;2.01;;;;;;;20.09;39.50;100113.01;;;;-53
2020/02/16 13:30:40;;;;;;;2.54;2.13;;;;;;;20.13;39.87;100108.69;;;;-51
2020/02/16 13:33:40;;;;;;;4.89;2.05;;;;;;;20.16;40.23;100105.84;;;;-53
2020/02/16 13:36:40;;;;;;;5.48;2.11;;;;;;;20.17;39.80;100110.01;;;;-51
2020/02/16 13:39:40;;;;;;;2.81;1.93;;;;;;;20.18;39.78;100109.64;;;;-53
2020/02/16 13:42:40;;;;;;;3.01;2.15;;;;;;;20.19;40.36;100101.20;;;;-52
2020/02/16 13:45:40;;;;;;;5.03;2.33;;;;;;;20.20;39.91;100096.94;;;;-52
2020/02/16 13:48:40;;;;;;;2.28;2.01;;;;;;;20.21;39.97;100088.63;;;;-52
2020/02/16 13:51:40;;;;;;;2.70;2.20;;;;;;;20.22;39.91;100092.92;;;;-53
2020/02/16 13:54:40;;;;;;;2.97;2.17;;;;;;;20.23;40.38;100091.17;;;;-51
2020/02/16 13:57:40;;;;;;;3.64;2.24;;;;;;;20.25;40.66;100078.84;;;;-51
2020/02/16 14:00:40;;;;;;;2.78;2.27;;;;;;;20.24;40.31;100076.89;;;;-51
2020/02/16 14:03:40;;;;;;;2.81;2.10;;;;;;;20.25;40.17;100081.42;;;;-51
2020/02/16 14:06:40;;;;;;;2.89;2.31;;;;;;;20.23;40.05;100079.94;;;;-52
2020/02/16 14:09:40;;;;;;;2.18;1.93;;;;;;;20.23;40.07;100075.41;;;;-52
2020/02/16 14:12:40;;;;;;;4.39;2.19;;;;;;;20.22;40.03;100076.08;;;;-51
2020/02/16 14:15:40;;;;;;;2.95;2.20;;;;;;;20.22;39.97;100060.89;;;;-52
2020/02/16 14:18:40;;;;;;;3.08;2.25;;;;;;;20.21;39.99;100062.47;;;;-52
2020/02/16 14:21:40;;;;;;;2.54;2.31;;;;;;;20.22;39.88;100059.38;;;;-51
2020/02/16 14:24:40;;;;;;;3.00;2.20;;;;;;;20.21;39.91;100056.59;;;;-48
2020/02/16 14:27:40;;;;;;;3.51;2.19;;;;;;;20.21;39.96;100055.16;;;;-48
2020/02/16 14:30:40;;;;;;;2.56;2.20;;;;;;;20.20;39.89;100066.96;;;;-48
2020/02/16 14:33:40;;;;;;;4.28;2.33;;;;;;;20.20;39.94;100070.72;;;;-48
2020/02/16 14:36:40;;;;;;;3.17;2.15;;;;;;;20.20;39.91;100075.91;;;;-49
2020/02/16 14:39:40;;;;;;;2.87;2.37;;;;;;;20.20;39.92;100078.33;;;;-50
2020/02/16 14:42:40;;;;;;;3.84;2.35;;;;;;;20.21;39.91;100076.62;;;;-48
2020/02/16 14:45:40;;;;;;;3.27;2.58;;;;;;;20.20;39.89;100073.23;;;;-49
2020/02/16 14:51:40;;;;;;;3.17;2.32;;;;;;;20.21;39.89;100080.31;;;;-49
2020/02/16 14:54:40;;;;;;;2.42;2.21;;;;;;;20.20;39.88;100074.41;;;;-49
2020/02/16 14:57:40;;;;;;;3.43;2.42;;;;;;;20.19;39.89;100062.62;;;;-48
2020/02/16 15:00:56;;;;;;;2.87;2.32;;;;;;;20.20;39.86;100069.03;;;;-49
2020/02/16 15:03:40;;;;;;;3.85;2.58;;;;;;;20.20;39.85;100062.06;;;;-48
2020/02/16 15:06:40;;;;;;;2.87;2.31;;;;;;;20.21;39.84;100053.31;;;;-50
2020/02/16 15:09:40;;;;;;;3.23;2.44;;;;;;;20.20;39.86;100048.41;;;;-49
2020/02/16 15:12:40;;;;;;;2.75;2.42;;;;;;;20.20;39.86;100047.17;;;;-48
2020/02/16 15:15:40;;;;;;;3.89;2.34;;;;;;;20.20;39.89;100038.02;;;;-49
2020/02/16 15:18:40;;;;;;;2.79;2.35;;;;;;;20.21;39.85;100033.93;;;;-48
2020/02/16 15:21:40;;;;;;;2.74;2.33;;;;;;;20.21;39.82;100042.58;;;;-48
2020/02/16 15:24:40;;;;;;;3.16;2.40;;;;;;;20.20;39.99;100029.03;;;;-49
2020/02/16 15:27:40;;;;;;;4.25;2.40;;;;;;;20.20;40.63;100025.01;;;;-48
2020/02/16 15:30:40;;;;;;;4.24;2.48;;;;;;;20.21;41.03;100023.20;;;;-50
2020/02/16 15:33:40;;;;;;;5.58;2.87;;;;;;;20.22;41.37;100019.14;;;;-45
2020/02/16 15:36:40;;;;;;;5.35;2.47;;;;;;;20.23;41.22;100010.63;;;;-52
2020/02/16 15:39:40;;;;;;;3.77;2.58;;;;;;;20.25;41.32;100009.15;;;;-51
2020/02/16 15:42:40;;;;;;;4.58;2.36;;;;;;;20.26;41.42;100010.89;;;;-50
2020/02/16 15:45:40;;;;;;;3.53;2.55;;;;;;;20.28;41.54;100001.38;;;;-51
2020/02/16 15:48:40;;;;;;;2.78;2.36;;;;;;;20.29;41.50;99998.05;;;;-51
2020/02/16 15:51:40;;;;;;;3.53;2.31;;;;;;;20.30;41.66;99996.23;;;;-57
2020/02/16 15:54:40;;;;;;;2.81;2.40;;;;;;;20.32;41.60;99998.98;;;;-49
2020/02/16 15:57:40;;;;;;;3.21;2.29;;;;;;;20.32;41.34;100001.34;;;;-48
2020/02/16 16:00:40;;;;;;;3.16;2.29;;;;;;;20.33;41.40;100003.48;;;;-56
2020/02/16 16:03:40;;;;;;;2.89;2.22;;;;;;;20.33;41.29;100004.16;;;;-53
2020/02/16 16:06:40;;;;;;;2.67;2.18;;;;;;;20.34;41.12;100009.05;;;;-54
2020/02/16 16:09:40;;;;;;;2.78;2.40;;;;;;;20.34;40.91;100001.77;;;;-51
2020/02/16 16:12:40;;;;;;;2.79;2.26;;;;;;;20.34;41.21;99994.90;;;;-56
2020/02/16 16:15:40;;;;;;;5.83;2.52;;;;;;;20.39;41.98;99990.70;;;;-47
2020/02/16 16:18:40;;;;;;;3.97;2.50;;;;;;;20.45;42.11;99988.45;;;;-58
2020/02/16 16:21:40;;;;;;;9.19;2.49;;;;;;;20.43;41.29;99980.34;;;;-51
2020/02/16 16:24:40;;;;;;;4.71;2.46;;;;;;;20.41;41.03;99975.84;;;;-51
2020/02/16 16:27:40;;;;;;;8.07;2.68;;;;;;;20.43;41.06;99980.84;;;;-51
2020/02/16 16:30:40;;;;;;;3.84;2.56;;;;;;;20.43;41.52;99975.64;;;;-49
2020/02/16 16:33:40;;;;;;;5.68;2.42;;;;;;;20.44;41.67;99977.19;;;;-56
2020/02/16 16:36:40;;;;;;;4.25;2.31;;;;;;;20.44;41.48;99973.33;;;;-48
2020/02/16 16:39:40;;;;;;;3.93;2.28;;;;;;;20.45;41.39;99974.70;;;;-50
2020/02/16 16:42:40;;;;;;;4.39;2.53;;;;;;;20.45;41.14;99972.86;;;;-50
2020/02/16 16:45:40;;;;;;;4.57;2.49;;;;;;;20.46;41.47;99980.34;;;;-50
2020/02/16 16:48:40;;;;;;;4.89;2.35;;;;;;;20.46;41.20;99973.06;;;;-51
2020/02/16 16:51:40;;;;;;;5.49;2.11;;;;;;;20.47;41.42;99974.09;;;;-56
2020/02/16 17:02:59;;;;;;;2.78;2.27;;;;;;;20.49;41.30;99962.02;;;;-55
2020/02/16 17:05:59;;;;;;;3.87;2.21;;;;;;;20.50;41.56;99966.91;;;;-56
2020/02/16 17:08:59;;;;;;;2.63;2.04;;;;;;;20.51;41.29;99972.45;;;;-61
2020/02/16 17:12:00;;;;;;;5.27;2.10;;;;;;;20.51;41.22;99980.44;;;;-54
2020/02/16 17:14:59;;;;;;;3.41;2.14;;;;;;;20.52;41.44;99981.14;;;;-53
2020/02/16 17:18:00;;;;;;;3.10;2.19;;;;;;;20.52;41.24;99977.11;;;;-53